Weather History for Fort Indiantown Gap, PA

Change the Weather History Date:

Friday, July 5, 2013

  Actual Average Record
Temperature  
Mean Temperature 79 °F -  
Max Temperature 90 °F 80 °F 97 °F (2010)
Min Temperature 68 °F 66 °F 57 °F (2014)
Cooling Degree Days 14    
Growing Degree Days 29 (Base 50)    
Moisture  
Dew Point 71 °F    
Average Humidity 92    
Maximum Humidity 100    
Minimum Humidity 51    
Precipitation  
Precipitation 0.00 in - - ()
Sea Level Pressure  
Sea Level Pressure 30.20 in    
Wind  
Wind Speed 1 mph (SW)    
Max Wind Speed 13 mph    
Max Gust Speed 17 mph    
Visibility 5 miles    
Events Fog , Rain    
Averages and records for this station are not official NWS values.
T = Trace of Precipitation, MM = Missing Value Source: NWS Daily Summary

Daily Weather History Graph

Daily Weather History Graph

Search for Another Location

Airport:

Trip Planner

Search our weather history database for the weather conditions in past years. The results will help you decide how hot, cold, wet, or windy it might be!

Date:

Astronomy

Jul. 05, 2013 Rise Set
Actual Time 5:42 AM EDT 8:39 PM EDT
Civil Twilight 5:09 AM EDT 9:12 PM EDT
Nautical Twilight 4:27 AM EDT 9:53 PM EDT
Astronomical Twilight 3:39 AM EDT 10:42 PM EDT
Moon 3:39 AM EDT (7/5) 6:32 PM EDT (7/5)
Length of Visible Light 16h 03m
Length of Day
14h 57m
Waning Crescent, 6% of the Moon is Illuminated
Jul 5
Waning Crescent
Jul 8
New
Jul 15
First Quarter
Jul 22
Full
Jul 29
Last Quarter

Hourly Weather History & Observations

Time (EDT) Temp. Heat Index Dew Point Humidity Pressure Visibility Wind Dir Wind Speed Gust Speed Precip Events Conditions
12:58 AM 72.7 °F - 72.7 °F 100% 30.22 in 10.0 mi Calm Calm - N/A   Clear
1:58 AM 71.4 °F - 71.4 °F 100% 30.22 in 5.0 mi Calm Calm - N/A   Clear
2:58 AM 70.5 °F - 70.5 °F 100% 30.22 in 6.0 mi Calm Calm - N/A   Partly Cloudy
3:24 AM 69.8 °F - 69.8 °F 100% 30.21 in 2.5 mi North 1.2 mph - N/A   Clear
3:26 AM 69.8 °F - 69.8 °F 100% 30.21 in 3.0 mi Calm Calm - N/A   Clear
3:58 AM 70.5 °F - 70.3 °F 99% 30.21 in 3.0 mi NNE 1.2 mph - N/A   Clear
4:04 AM 69.8 °F - 69.8 °F 100% 30.21 in 2.0 mi Calm Calm - N/A   Clear
4:16 AM 69.8 °F - 69.8 °F 100% 30.20 in 3.0 mi NE 2.3 mph - N/A   Clear
4:20 AM 69.8 °F - 69.8 °F 100% 30.20 in 1.8 mi North 1.2 mph - N/A   Clear
4:22 AM 69.8 °F - 69.8 °F 100% 30.21 in 1.2 mi NNW 2.3 mph - N/A   Clear
4:30 AM 69.8 °F - 69.8 °F 100% 30.21 in 1.8 mi Calm Calm - N/A   Clear
4:32 AM 69.8 °F - 69.8 °F 100% 30.21 in 3.0 mi Calm Calm - N/A   Clear
4:44 AM 69.8 °F - 69.8 °F 100% 30.21 in 2.5 mi Calm Calm - N/A   Clear
4:46 AM 69.8 °F - 69.8 °F 100% 30.21 in 3.0 mi Calm Calm - N/A   Clear
4:52 AM 69.8 °F - 69.8 °F 100% 30.21 in 2.5 mi Calm Calm - N/A   Clear
4:54 AM 69.8 °F - 69.8 °F 100% 30.21 in 1.8 mi NNE 1.2 mph - N/A   Clear
4:56 AM 69.8 °F - 69.8 °F 100% 30.20 in 1.5 mi Calm Calm - N/A   Clear
4:58 AM 69.6 °F - 69.6 °F 100% 30.20 in 1.5 mi Calm Calm - N/A   Clear
5:02 AM 69.8 °F - 69.8 °F 100% 30.21 in 1.2 mi Calm Calm - N/A   Clear
5:04 AM 68.0 °F - 68.0 °F 100% 30.21 in 1.5 mi Calm Calm - N/A   Clear
5:12 AM 69.8 °F - 69.8 °F 100% 30.21 in 1.8 mi Calm Calm - N/A   Clear
5:14 AM 69.8 °F - 69.8 °F 100% 30.21 in 1.2 mi Calm Calm - N/A   Clear
5:16 AM 69.8 °F - 69.8 °F 100% 30.21 in 0.8 mi NNE 1.2 mph - N/A   Clear
5:18 AM 69.8 °F - 69.8 °F 100% 30.21 in 0.5 mi NNE 2.3 mph - N/A Fog Fog
5:24 AM 69.8 °F - 69.8 °F 100% 30.21 in 0.2 mi NNE 2.3 mph - N/A Fog Fog
5:26 AM 68.0 °F - 68.0 °F 100% 30.21 in 0.5 mi NE 2.3 mph - N/A Fog Fog
5:40 AM 69.8 °F - 69.8 °F 100% 30.22 in 0.8 mi Calm Calm - N/A   Clear
5:46 AM 68.0 °F - 68.0 °F 100% 30.22 in 1.0 mi Calm Calm - N/A   Clear
5:52 AM 68.0 °F - 68.0 °F 100% 30.22 in 1.2 mi Calm Calm - N/A   Clear
5:54 AM 69.8 °F - 69.8 °F 100% 30.22 in 1.0 mi Calm Calm - N/A   Clear
5:56 AM 69.8 °F - 69.8 °F 100% 30.22 in 0.8 mi Calm Calm - N/A   Clear
5:58 AM 69.8 °F - 69.8 °F 100% 30.22 in 0.5 mi Calm Calm - N/A Fog Fog
6:04 AM 68.0 °F - 68.0 °F 100% 30.22 in 0.8 mi Calm Calm - N/A   Clear
6:08 AM 68.0 °F - 68.0 °F 100% 30.22 in 1.0 mi Calm Calm - N/A   Clear
6:12 AM 68.0 °F - 68.0 °F 100% 30.22 in 0.8 mi Calm Calm - N/A   Clear
6:14 AM 69.8 °F - 69.8 °F 100% 30.22 in 0.5 mi Calm Calm - N/A Fog Fog
6:16 AM 69.8 °F - 69.8 °F 100% 30.22 in 0.2 mi Calm Calm - N/A Fog Fog
6:26 AM 69.8 °F - 69.8 °F 100% 30.22 in 0.5 mi Calm Calm - N/A Fog Fog
6:28 AM 69.8 °F - 69.8 °F 100% 30.22 in 1.0 mi Calm Calm - N/A   Clear
6:30 AM 69.8 °F - 69.8 °F 100% 30.22 in 1.5 mi Calm Calm - N/A   Clear
6:32 AM 69.8 °F - 69.8 °F 100% 30.22 in 2.0 mi Calm Calm - N/A   Clear
6:44 AM 69.8 °F - 69.8 °F 100% 30.22 in 3.0 mi Calm Calm - N/A   Clear
6:58 AM 71.2 °F - 71.2 °F 100% 30.23 in 4.0 mi Calm Calm - N/A   Clear
7:28 AM 73.4 °F - 73.4 °F 100% 30.22 in 7.0 mi Calm Calm - N/A Rain Light Rain
7:39 AM 75.2 °F - 75.2 °F 100% 30.22 in 10.0 mi Calm Calm - N/A   Clear
7:40 AM 75.2 °F - 75.2 °F 100% 30.22 in 10.0 mi Calm Calm - N/A Rain Light Rain
7:58 AM 75.7 °F - 75.4 °F 99% 30.22 in 10.0 mi Calm Calm - 0.00 in Rain Light Rain
8:11 AM 77.0 °F - 75.2 °F 94% 30.22 in 5.0 mi Variable 2.3 mph - N/A   Partly Cloudy
8:37 AM 77.0 °F - 75.2 °F 94% 30.23 in 10.0 mi SW 9.2 mph - N/A   Mostly Cloudy
8:58 AM 77.5 °F - 73.9 °F 89% 30.22 in 10.0 mi WSW 5.8 mph - 0.00 in   Mostly Cloudy
9:10 AM 78.8 °F - 73.4 °F 83% 30.22 in 10.0 mi SSW 6.9 mph - N/A   Scattered Clouds
9:58 AM 80.8 °F 85.2 °F 72.7 °F 76% 30.21 in 10.0 mi SSW 5.8 mph - N/A   Scattered Clouds
10:58 AM 83.1 °F 88.6 °F 72.5 °F 70% 30.21 in 10.0 mi Variable 4.6 mph - N/A   Partly Cloudy
11:58 AM 86.0 °F 92.2 °F 72.1 °F 63% 30.20 in 10.0 mi South 5.8 mph - N/A   Clear
12:58 PM 87.6 °F 93.9 °F 71.6 °F 59% 30.19 in 10.0 mi SSW 9.2 mph 17.3 mph N/A   Partly Cloudy
1:58 PM 87.4 °F 92.7 °F 70.7 °F 57% 30.17 in 10.0 mi SSW 9.2 mph - N/A   Partly Cloudy
2:58 PM 89.6 °F 95.7 °F 70.7 °F 54% 30.17 in 10.0 mi SW 8.1 mph - N/A   Partly Cloudy
3:58 PM 90.0 °F 95.0 °F 69.4 °F 51% 30.15 in 10.0 mi SSW 10.4 mph - N/A   Clear
4:58 PM 88.7 °F 93.5 °F 69.8 °F 53% 30.13 in 10.0 mi South 10.4 mph - N/A   Partly Cloudy
5:58 PM 88.7 °F 93.9 °F 70.0 °F 54% 30.12 in 10.0 mi SSW 12.7 mph - N/A   Clear
6:58 PM 85.5 °F 89.8 °F 69.4 °F 59% 30.11 in 10.0 mi SSW 9.2 mph - N/A   Clear
7:58 PM 83.8 °F 88.6 °F 71.1 °F 65% 30.12 in 10.0 mi SW 5.8 mph - N/A   Clear
8:58 PM 80.4 °F 84.5 °F 72.3 °F 76% 30.14 in 10.0 mi Calm Calm - N/A   Clear
9:58 PM 75.4 °F - 73.6 °F 94% 30.16 in 10.0 mi Calm Calm - N/A   Clear
10:58 PM 74.7 °F - 73.6 °F 96% 30.16 in 10.0 mi East 2.3 mph - N/A   Clear
11:58 PM 73.2 °F - 73.0 °F 99% 30.16 in 10.0 mi North 1.2 mph - N/A   Clear